Time;durP1;ratioP1;P1;durP2;ratioP2;P2;SDS_P1;SDS_P2;PMS_P1;PMS_P2;Temp;Humidity;BMP_temperature;BMP_pressure;BME280_temperature;BME280_humidity;BME280_pressure;Samples;Min_cycle;Max_cycle;Signal;HPM_P1;HPM_P2
2022/10/12 00:01:35;;;;;;;11.00;6.43;;;9.90;99.90;;;;;;5099813;28;20461;-68
2022/10/12 00:04:02;;;;;;;14.03;7.13;;;9.90;99.90;;;;;;5099959;28;20459;-69
2022/10/12 00:06:29;;;;;;;11.97;6.57;;;10.00;99.90;;;;;;5099026;28;20453;-69
2022/10/12 00:08:55;;;;;;;15.40;6.30;;;10.00;99.90;;;;;;5099863;28;20842;-69
2022/10/12 00:11:25;;;;;;;13.13;7.07;;;10.00;99.90;;;;;;5099747;28;20464;-69
2022/10/12 00:13:52;;;;;;;14.20;6.60;;;10.00;99.90;;;;;;5099740;28;20453;-68
2022/10/12 00:16:21;;;;;;;11.43;6.63;;;10.00;99.90;;;;;;5099787;28;20552;-70
2022/10/12 00:18:50;;;;;;;12.73;6.50;;;10.00;99.90;;;;;;5099815;28;20591;-70
2022/10/12 00:21:17;;;;;;;13.53;7.70;;;10.00;99.90;;;;;;5099229;28;20452;-70
2022/10/12 00:23:44;;;;;;;11.33;6.97;;;10.00;99.90;;;;;;5099144;28;20487;-69
2022/10/12 00:26:13;;;;;;;11.17;6.70;;;10.00;99.90;;;;;;5099437;28;20448;-68
2022/10/12 00:28:42;;;;;;;14.10;6.63;;;10.00;99.90;;;;;;5099809;28;20540;-70
2022/10/12 00:31:10;;;;;;;14.47;6.97;;;9.90;99.90;;;;;;5099187;28;20548;-69
2022/10/12 00:33:37;;;;;;;12.63;6.50;;;9.90;99.90;;;;;;5099574;28;20481;-70
2022/10/12 00:36:12;;;;;;;12.83;7.37;;;9.90;99.90;;;;;;5099660;28;20467;-70
2022/10/12 00:38:39;;;;;;;12.37;6.47;;;9.90;99.90;;;;;;5098660;28;20541;-70
2022/10/12 00:41:06;;;;;;;10.20;6.70;;;9.80;99.90;;;;;;5098660;28;20467;-70
2022/10/12 00:43:36;;;;;;;13.93;7.37;;;9.80;99.90;;;;;;5098906;28;20541;-70
2022/10/12 00:46:13;;;;;;;11.70;7.80;;;9.80;99.90;;;;;;5098772;28;20438;-69
2022/10/12 00:48:41;;;;;;;11.87;7.17;;;9.80;99.90;;;;;;5099370;28;20524;-69
2022/10/12 00:51:09;;;;;;;8.30;6.57;;;9.70;99.90;;;;;;5098590;28;20453;-68
2022/10/12 00:53:40;;;;;;;12.80;7.53;;;9.70;99.90;;;;;;5099110;28;20476;-69
2022/10/12 00:56:12;;;;;;;14.20;6.60;;;9.70;99.90;;;;;;5099893;28;20830;-69
2022/10/12 00:58:39;;;;;;;11.47;7.07;;;9.70;99.90;;;;;;5099394;28;20976;-68
2022/10/12 01:01:09;;;;;;;14.30;7.60;;;9.60;99.90;;;;;;5099255;28;20453;-69
2022/10/12 01:03:36;;;;;;;39.60;25.63;;;9.60;99.90;;;;;;5099333;28;20480;-69
2022/10/12 01:06:03;;;;;;;20.20;9.87;;;9.60;99.90;;;;;;5099089;28;20835;-69
2022/10/12 01:08:30;;;;;;;11.10;7.00;;;9.60;99.90;;;;;;5098314;28;20453;-69
2022/10/12 01:10:58;;;;;;;18.07;8.07;;;9.60;99.90;;;;;;5098519;28;20457;-69
2022/10/12 01:13:25;;;;;;;11.20;7.60;;;9.50;99.90;;;;;;5098415;28;20449;-69
2022/10/12 01:15:58;;;;;;;15.37;6.90;;;9.50;99.90;;;;;;5098896;28;20897;-69
2022/10/12 01:18:37;;;;;;;11.80;6.67;;;9.50;99.90;;;;;;5098040;28;20465;-69
2022/10/12 01:21:17;;;;;;;14.00;7.90;;;9.50;99.90;;;;;;5097951;28;20544;-69
2022/10/12 01:24:05;;;;;;;18.67;6.80;;;9.40;99.90;;;;;;5097418;28;20481;-69
2022/10/12 01:27:05;;;;;;;12.40;6.90;;;9.40;99.90;;;;;;5098208;28;20473;-69
2022/10/12 01:29:53;;;;;;;12.43;7.50;;;9.40;99.90;;;;;;5054672;28;20516;-69
2022/10/12 01:32:24;;;;;;;16.57;6.90;;;9.30;99.90;;;;;;5098460;28;20496;-69
2022/10/12 01:34:56;;;;;;;13.07;7.23;;;9.30;99.90;;;;;;5102119;28;20449;-69
2022/10/12 01:37:31;;;;;;;17.53;10.70;;;9.30;99.90;;;;;;5101986;28;20474;-69
2022/10/12 01:40:04;;;;;;;15.20;10.00;;;9.30;99.90;;;;;;5102434;28;20443;-71
2022/10/12 01:42:35;;;;;;;17.27;9.97;;;9.30;99.90;;;;;;5102669;28;20513;-69
2022/10/12 01:45:05;;;;;;;11.50;7.17;;;9.30;99.90;;;;;;5101824;28;20861;-69
2022/10/12 01:47:33;;;;;;;13.30;7.50;;;9.30;99.90;;;;;;5102191;28;20881;-69
2022/10/12 01:50:01;;;;;;;16.57;8.40;;;9.20;99.90;;;;;;5101769;28;20457;-69
2022/10/12 01:52:29;;;;;;;11.63;7.10;;;9.20;99.90;;;;;;5101730;28;20514;-69
2022/10/12 01:55:07;;;;;;;18.10;7.70;;;9.20;99.90;;;;;;5101764;28;20544;-69
2022/10/12 01:57:44;;;;;;;17.00;8.00;;;9.20;99.90;;;;;;5101354;28;20471;-69
2022/10/12 02:00:14;;;;;;;11.57;7.53;;;9.20;99.90;;;;;;5101426;28;20441;-69
2022/10/12 02:02:52;;;;;;;16.70;7.97;;;9.10;99.90;;;;;;5101397;28;20532;-69
2022/10/12 02:05:26;;;;;;;16.60;8.23;;;9.10;99.90;;;;;;5101423;28;20442;-69
2022/10/12 02:07:59;;;;;;;14.13;7.13;;;9.10;99.90;;;;;;5102119;28;20439;-69
2022/10/12 02:10:30;;;;;;;14.70;7.50;;;9.10;99.90;;;;;;5102201;28;20441;-68
2022/10/12 02:13:00;;;;;;;15.30;8.00;;;9.10;99.90;;;;;;5101680;28;20528;-69
2022/10/12 02:15:30;;;;;;;12.60;6.90;;;9.10;99.90;;;;;;5101964;28;20442;-69
2022/10/12 02:17:58;;;;;;;13.93;6.90;;;9.10;99.90;;;;;;5101189;28;20971;-70
2022/10/12 02:20:27;;;;;;;11.53;7.40;;;9.10;99.90;;;;;;5101544;28;20495;-69
2022/10/12 02:22:54;;;;;;;13.33;7.40;;;9.10;99.90;;;;;;5101928;28;20540;-68
2022/10/12 02:25:24;;;;;;;10.20;7.40;;;9.10;99.90;;;;;;5101043;28;20473;-68
2022/10/12 02:27:57;;;;;;;8.93;6.10;;;9.10;99.90;;;;;;5101357;28;20789;-68
2022/10/12 02:30:24;;;;;;;14.97;8.23;;;9.10;99.90;;;;;;5101029;28;20473;-69
2022/10/12 02:32:56;;;;;;;14.03;6.97;;;9.10;99.90;;;;;;5101471;28;20808;-69
2022/10/12 02:35:31;;;;;;;17.90;7.50;;;9.10;99.90;;;;;;5101299;28;20728;-69
2022/10/12 02:38:03;;;;;;;10.17;6.20;;;9.10;99.90;;;;;;5099921;28;20953;-69
2022/10/12 02:40:34;;;;;;;11.53;6.33;;;9.10;99.90;;;;;;5100316;28;20437;-69
2022/10/12 02:43:08;;;;;;;16.20;6.80;;;9.10;99.90;;;;;;5101394;28;20929;-69
2022/10/12 02:45:36;;;;;;;12.73;7.10;;;9.10;99.90;;;;;;5100226;28;20442;-69
2022/10/12 02:48:06;;;;;;;9.60;6.50;;;9.10;99.90;;;;;;5099990;28;20860;-69
2022/10/12 02:50:34;;;;;;;14.57;7.03;;;9.10;99.90;;;;;;5100329;28;20457;-70
2022/10/12 02:53:01;;;;;;;9.37;6.67;;;9.10;99.90;;;;;;5100436;28;20928;-69
2022/10/12 02:55:30;;;;;;;11.73;6.50;;;9.10;99.90;;;;;;5099669;28;20453;-69
2022/10/12 02:57:56;;;;;;;8.83;6.10;;;9.00;99.90;;;;;;5100454;28;20492;-69
2022/10/12 03:00:23;;;;;;;10.43;7.30;;;9.00;99.90;;;;;;5100698;28;20793;-69
2022/10/12 03:02:50;;;;;;;11.80;6.30;;;9.00;99.90;;;;;;5100225;28;20464;-69
2022/10/12 03:05:18;;;;;;;14.90;7.10;;;9.00;99.90;;;;;;5100371;28;20762;-69
2022/10/12 03:07:45;;;;;;;10.90;6.67;;;9.00;99.90;;;;;;5100311;28;20446;-69
2022/10/12 03:10:12;;;;;;;12.73;7.17;;;9.00;99.90;;;;;;5100313;28;20544;-69
2022/10/12 03:12:39;;;;;;;11.67;7.47;;;9.00;99.90;;;;;;5099945;28;20839;-69
2022/10/12 03:15:06;;;;;;;13.00;7.63;;;9.00;99.90;;;;;;5100042;28;20463;-69
2022/10/12 03:17:33;;;;;;;11.53;6.60;;;9.00;99.90;;;;;;5099909;28;20819;-69
2022/10/12 03:20:00;;;;;;;11.50;7.03;;;9.00;99.90;;;;;;5099688;28;20453;-69
2022/10/12 03:22:28;;;;;;;11.50;7.00;;;8.90;99.90;;;;;;5099768;28;20984;-69
2022/10/12 03:24:55;;;;;;;10.97;6.20;;;8.90;99.90;;;;;;5100153;28;20576;-69
2022/10/12 03:27:23;;;;;;;17.43;7.47;;;8.90;99.90;;;;;;5100425;28;20457;-69
2022/10/12 03:29:50;;;;;;;12.73;6.70;;;8.90;99.90;;;;;;5100032;28;20465;-69
2022/10/12 03:32:17;;;;;;;13.30;6.90;;;8.80;99.90;;;;;;5099969;28;20558;-69
2022/10/12 03:34:44;;;;;;;12.50;6.47;;;8.80;99.90;;;;;;5100376;28;20460;-69
2022/10/12 03:37:11;;;;;;;11.60;6.43;;;8.80;99.90;;;;;;5100276;28;20463;-69
2022/10/12 03:39:39;;;;;;;7.50;6.30;;;8.80;99.90;;;;;;5099849;28;20964;-70
2022/10/12 03:42:06;;;;;;;12.03;6.50;;;8.80;99.90;;;;;;5099122;28;20459;-69
2022/10/12 03:44:33;;;;;;;14.87;7.00;;;8.70;99.90;;;;;;5099734;28;20450;-70
2022/10/12 03:47:00;;;;;;;13.90;6.70;;;8.80;99.90;;;;;;5099367;28;20539;-69
2022/10/12 03:49:26;;;;;;;14.30;6.77;;;8.70;99.90;;;;;;5100450;28;20781;-69
2022/10/12 03:51:54;;;;;;;10.50;6.90;;;8.70;99.90;;;;;;5099944;28;20475;-69
2022/10/12 03:54:21;;;;;;;14.60;7.20;;;8.70;99.90;;;;;;5100713;28;20465;-69
2022/10/12 03:56:49;;;;;;;10.23;7.43;;;8.70;99.90;;;;;;5099138;28;20540;-70
2022/10/12 03:59:16;;;;;;;9.60;6.70;;;8.70;99.90;;;;;;5099171;28;20487;-69
2022/10/12 04:01:43;;;;;;;14.57;8.30;;;8.70;99.90;;;;;;5099971;28;20607;-69
2022/10/12 04:04:10;;;;;;;16.47;8.53;;;8.70;99.90;;;;;;5099987;28;20529;-69
2022/10/12 04:06:37;;;;;;;14.67;7.97;;;8.70;99.90;;;;;;5101397;28;20461;-69
2022/10/12 04:09:04;;;;;;;13.97;7.80;;;8.70;99.90;;;;;;5100655;28;20459;-69
2022/10/12 04:11:31;;;;;;;20.80;8.87;;;8.70;99.90;;;;;;5100844;28;20556;-68
2022/10/12 04:13:59;;;;;;;17.83;9.17;;;8.60;99.90;;;;;;5100845;28;20457;-69
2022/10/12 04:16:26;;;;;;;13.87;9.07;;;8.60;99.90;;;;;;5101099;28;20477;-69
2022/10/12 04:18:53;;;;;;;14.90;9.13;;;8.60;99.90;;;;;;5100437;28;20477;-69
2022/10/12 04:21:22;;;;;;;21.17;11.20;;;8.60;99.90;;;;;;5098380;28;20457;-69
2022/10/12 04:23:49;;;;;;;18.17;9.67;;;8.60;99.90;;;;;;5099101;28;20482;-69
2022/10/12 04:26:16;;;;;;;16.10;9.50;;;8.60;99.90;;;;;;5098805;28;20461;-69
2022/10/12 04:28:42;;;;;;;19.13;11.57;;;8.60;99.90;;;;;;5097691;28;21005;-69
2022/10/12 04:31:10;;;;;;;17.23;10.50;;;8.60;99.90;;;;;;5097979;28;20453;-69
2022/10/12 04:33:37;;;;;;;15.80;9.80;;;8.60;99.90;;;;;;5098697;28;20460;-69
2022/10/12 04:36:04;;;;;;;14.77;11.17;;;8.50;99.90;;;;;;5099261;28;20835;-69
2022/10/12 04:38:31;;;;;;;18.40;10.47;;;8.50;99.90;;;;;;5098740;28;20576;-69
2022/10/12 04:40:58;;;;;;;22.70;10.10;;;8.50;99.90;;;;;;5099082;28;20552;-69
2022/10/12 04:43:25;;;;;;;21.40;10.20;;;8.50;99.90;;;;;;5098146;28;20463;-69
2022/10/12 04:45:56;;;;;;;15.33;9.00;;;8.50;99.90;;;;;;5098046;28;20965;-70
2022/10/12 04:48:25;;;;;;;13.33;8.97;;;8.50;99.90;;;;;;5098262;28;20449;-68
2022/10/12 04:50:52;;;;;;;17.63;10.93;;;8.40;99.90;;;;;;5097889;28;20461;-69
2022/10/12 04:53:19;;;;;;;99.93;59.00;;;8.40;99.90;;;;;;5098215;28;20453;-68
2022/10/12 04:55:46;;;;;;;24.37;16.10;;;8.40;99.90;;;;;;5098287;28;20541;-69
2022/10/12 04:58:13;;;;;;;21.77;11.20;;;8.40;99.90;;;;;;5097529;28;20477;-70
2022/10/12 05:00:39;;;;;;;18.80;10.33;;;8.40;99.90;;;;;;5097968;28;20538;-70
2022/10/12 05:03:07;;;;;;;15.20;9.90;;;8.40;99.90;;;;;;5097756;28;20496;-70
2022/10/12 05:05:35;;;;;;;23.80;13.53;;;8.40;99.90;;;;;;5098034;28;20461;-69
2022/10/12 05:08:02;;;;;;;19.73;11.90;;;8.40;99.90;;;;;;5100137;28;20764;-69
2022/10/12 05:10:29;;;;;;;18.33;11.17;;;8.40;99.90;;;;;;5101442;28;20457;-68
2022/10/12 05:12:56;;;;;;;18.47;11.07;;;8.40;99.90;;;;;;5099436;28;20763;-68
2022/10/12 05:15:22;;;;;;;20.13;11.33;;;8.40;99.90;;;;;;5098320;28;20463;-68
2022/10/12 05:17:49;;;;;;;15.53;10.73;;;8.40;99.90;;;;;;5098137;28;20467;-68
2022/10/12 05:20:16;;;;;;;16.97;11.53;;;8.30;99.90;;;;;;5099394;28;20475;-68
2022/10/12 05:22:44;;;;;;;27.60;13.70;;;8.30;99.90;;;;;;5098504;28;20456;-68
2022/10/12 05:25:11;;;;;;;17.30;10.97;;;8.30;99.90;;;;;;5098156;28;20481;-68
2022/10/12 05:27:38;;;;;;;27.40;17.10;;;8.30;99.90;;;;;;5098591;28;20479;-68
2022/10/12 05:30:06;;;;;;;19.43;12.20;;;8.30;99.90;;;;;;5098355;28;20453;-68
2022/10/12 05:32:34;;;;;;;18.30;12.53;;;8.20;99.90;;;;;;5098594;28;20453;-68
2022/10/12 05:35:00;;;;;;;24.40;14.30;;;8.30;99.90;;;;;;5098363;28;20463;-68
2022/10/12 05:37:27;;;;;;;20.33;13.10;;;8.20;99.90;;;;;;5098357;28;20464;-68
2022/10/12 05:39:55;;;;;;;21.57;13.17;;;8.30;99.90;;;;;;5098067;28;20476;-68
2022/10/12 05:42:22;;;;;;;14.90;11.90;;;8.30;99.90;;;;;;5098270;28;20762;-67
2022/10/12 05:44:49;;;;;;;17.73;10.97;;;8.30;99.90;;;;;;5099027;28;20457;-67
2022/10/12 05:47:16;;;;;;;17.60;10.80;;;8.30;99.90;;;;;;5098080;28;20457;-69
2022/10/12 05:49:43;;;;;;;20.27;11.20;;;8.20;99.90;;;;;;5098831;28;20911;-68
2022/10/12 05:52:09;;;;;;;25.77;11.33;;;8.20;99.90;;;;;;5098339;28;20453;-68
2022/10/12 05:54:36;;;;;;;19.07;12.07;;;8.30;99.90;;;;;;5097798;28;20536;-67
2022/10/12 05:57:04;;;;;;;18.47;12.47;;;8.30;99.90;;;;;;5097782;28;20463;-68
2022/10/12 05:59:31;;;;;;;16.60;11.00;;;8.30;99.90;;;;;;5097551;28;20477;-68
2022/10/12 06:01:58;;;;;;;15.43;10.23;;;8.30;99.90;;;;;;5097400;28;20460;-68
2022/10/12 06:04:25;;;;;;;18.43;10.33;;;8.30;99.90;;;;;;5097835;28;20466;-68
2022/10/12 06:06:52;;;;;;;15.57;9.40;;;8.30;99.90;;;;;;5097432;28;20854;-68
2022/10/12 06:09:19;;;;;;;16.00;10.43;;;8.30;99.90;;;;;;5097599;28;20464;-68
2022/10/12 06:11:45;;;;;;;17.50;9.90;;;8.30;99.90;;;;;;5097783;28;20780;-68
2022/10/12 06:14:14;;;;;;;16.33;9.80;;;8.30;99.90;;;;;;5097476;28;20460;-68
2022/10/12 06:16:40;;;;;;;19.43;10.60;;;8.30;99.90;;;;;;5097364;28;20461;-68
2022/10/12 06:19:09;;;;;;;16.63;9.57;;;8.30;99.90;;;;;;5096554;28;20479;-68
2022/10/12 06:21:36;;;;;;;19.07;10.13;;;8.30;99.90;;;;;;5097633;28;20540;-67
2022/10/12 06:24:03;;;;;;;14.50;10.70;;;8.40;99.90;;;;;;5097241;28;20812;-67
2022/10/12 06:26:29;;;;;;;23.50;14.10;;;8.40;99.90;;;;;;5097417;28;20453;-67
2022/10/12 06:28:56;;;;;;;21.77;10.97;;;8.40;99.90;;;;;;5097308;28;20898;-68
2022/10/12 06:31:24;;;;;;;20.77;11.60;;;8.40;99.90;;;;;;5097316;28;20464;-68
2022/10/12 06:33:52;;;;;;;20.10;10.67;;;8.50;99.90;;;;;;5097498;28;20544;-68
2022/10/12 06:36:19;;;;;;;23.10;11.67;;;8.60;99.90;;;;;;5096864;28;20937;-68
2022/10/12 06:38:46;;;;;;;13.87;9.87;;;8.60;99.90;;;;;;5096557;28;20477;-69
2022/10/12 06:41:13;;;;;;;31.50;16.70;;;8.70;99.90;;;;;;5097143;28;20453;-68
2022/10/12 06:43:39;;;;;;;21.40;12.57;;;8.70;99.90;;;;;;5097024;28;20844;-67
2022/10/12 06:46:07;;;;;;;22.23;14.50;;;8.80;99.90;;;;;;5096790;28;20530;-69
2022/10/12 06:48:35;;;;;;;18.77;10.80;;;8.90;99.90;;;;;;5096259;28;20457;-68
2022/10/12 06:51:02;;;;;;;19.67;9.20;;;9.00;99.90;;;;;;5096279;28;20461;-68
2022/10/12 06:53:31;;;;;;;19.53;9.33;;;9.00;99.90;;;;;;5096176;28;20748;-68
2022/10/12 06:55:58;;;;;;;12.10;9.00;;;9.10;99.90;;;;;;5096353;28;20960;-68
2022/10/12 06:58:25;;;;;;;23.10;12.23;;;9.20;99.90;;;;;;5096261;28;20556;-68
2022/10/12 07:00:52;;;;;;;21.20;9.00;;;9.20;99.90;;;;;;5095773;28;20520;-68
2022/10/12 07:03:19;;;;;;;24.03;9.63;;;9.30;99.90;;;;;;5095721;28;20472;-68
2022/10/12 07:05:47;;;;;;;17.23;10.13;;;9.30;99.90;;;;;;5096390;28;20453;-68
2022/10/12 07:08:14;;;;;;;16.30;9.03;;;9.40;99.90;;;;;;5096069;28;20939;-67
2022/10/12 07:10:41;;;;;;;16.57;9.30;;;9.50;99.90;;;;;;5096583;28;20454;-68
2022/10/12 07:13:07;;;;;;;17.00;10.60;;;9.50;99.90;;;;;;5096637;28;20459;-68
2022/10/12 07:15:34;;;;;;;17.87;9.70;;;9.60;99.90;;;;;;5096513;28;20449;-69
2022/10/12 07:18:01;;;;;;;14.37;8.43;;;9.70;99.90;;;;;;5096649;28;20925;-67
2022/10/12 07:20:28;;;;;;;18.77;8.10;;;9.80;99.90;;;;;;5096287;28;20481;-66
2022/10/12 07:22:56;;;;;;;10.67;6.80;;;9.80;99.90;;;;;;5096180;28;20475;-67
2022/10/12 07:25:23;;;;;;;13.00;7.97;;;10.00;99.90;;;;;;5096167;28;20485;-67
2022/10/12 07:27:50;;;;;;;18.73;7.90;;;10.00;99.90;;;;;;5096192;28;20465;-69
2022/10/12 07:30:17;;;;;;;13.50;7.23;;;10.10;99.90;;;;;;5095913;28;20450;-68
2022/10/12 07:32:45;;;;;;;16.83;8.93;;;10.20;99.90;;;;;;5096240;28;20473;-68
2022/10/12 07:35:11;;;;;;;17.03;8.83;;;10.30;99.90;;;;;;5096079;28;20476;-68
2022/10/12 07:37:38;;;;;;;19.50;7.47;;;10.40;99.90;;;;;;5096526;28;20479;-68
2022/10/12 07:40:08;;;;;;;16.40;8.03;;;10.50;99.90;;;;;;5095520;28;20503;-68
2022/10/12 07:42:35;;;;;;;17.67;8.27;;;10.60;99.90;;;;;;5095593;28;20777;-69
2022/10/12 07:45:02;;;;;;;13.27;5.80;;;10.70;99.90;;;;;;5095616;28;20457;-68
2022/10/12 07:47:28;;;;;;;21.73;9.50;;;10.80;99.90;;;;;;5095789;28;20459;-69
2022/10/12 07:49:58;;;;;;;15.87;8.80;;;10.90;99.90;;;;;;5095674;28;20446;-70
2022/10/12 07:52:26;;;;;;;16.77;7.83;;;11.00;99.90;;;;;;5095192;28;20510;-69
2022/10/12 07:54:53;;;;;;;14.37;7.73;;;11.10;99.90;;;;;;5094846;28;20462;-69
2022/10/12 07:57:21;;;;;;;13.80;7.40;;;11.10;99.90;;;;;;5095334;28;20559;-67
2022/10/12 07:59:48;;;;;;;16.37;6.37;;;11.30;99.90;;;;;;5094702;28;20957;-68
2022/10/12 08:02:14;;;;;;;11.40;5.93;;;11.40;99.90;;;;;;5095107;28;20464;-69
2022/10/12 08:04:41;;;;;;;12.43;7.00;;;11.40;99.90;;;;;;5095483;28;21020;-68
2022/10/12 08:07:08;;;;;;;18.13;6.50;;;11.50;99.90;;;;;;5094923;28;20452;-68
2022/10/12 08:09:35;;;;;;;11.57;6.13;;;11.60;99.90;;;;;;5094645;28;20460;-69
2022/10/12 08:12:02;;;;;;;16.00;5.60;;;11.70;99.90;;;;;;5094642;28;20936;-68
2022/10/12 08:14:30;;;;;;;8.97;5.20;;;11.90;99.90;;;;;;5095363;28;20461;-67
2022/10/12 08:16:57;;;;;;;12.23;5.80;;;12.00;99.90;;;;;;5095862;28;20450;-68
2022/10/12 08:19:24;;;;;;;14.10;6.20;;;12.00;99.90;;;;;;5094520;28;20593;-67
2022/10/12 08:21:51;;;;;;;21.77;6.37;;;12.10;99.90;;;;;;5094673;28;20540;-68
2022/10/12 08:24:18;;;;;;;23.23;7.90;;;12.10;99.90;;;;;;5094430;28;20481;-68
2022/10/12 08:26:45;;;;;;;11.33;6.50;;;12.20;99.90;;;;;;5094551;28;20453;-68
2022/10/12 08:29:12;;;;;;;13.83;6.17;;;12.20;99.90;;;;;;5094799;28;20453;-68
2022/10/12 08:31:40;;;;;;;15.53;7.10;;;12.30;99.90;;;;;;5094867;28;20787;-68
2022/10/12 08:34:07;;;;;;;12.57;6.70;;;12.30;99.90;;;;;;5094854;28;20540;-69
2022/10/12 08:36:34;;;;;;;12.80;5.17;;;12.40;99.90;;;;;;5095663;28;20844;-68
2022/10/12 08:39:00;;;;;;;12.27;5.13;;;12.50;99.90;;;;;;5095086;28;20787;-68
2022/10/12 08:41:38;;;;;;;9.30;4.57;;;12.60;99.90;;;;;;5094604;28;20454;-67
2022/10/12 08:44:36;;;;;;;11.60;4.57;;;12.60;99.90;;;;;;5095080;28;20438;-68
2022/10/12 08:47:10;;;;;;;16.03;5.03;;;12.70;99.90;;;;;;5094324;28;20749;-68
2022/10/12 08:49:39;;;;;;;10.33;5.17;;;12.80;99.90;;;;;;5094160;28;20433;-68
2022/10/12 08:52:17;;;;;;;11.60;4.40;;;12.90;99.90;;;;;;5094519;28;20818;-68
2022/10/12 08:54:46;;;;;;;9.27;4.13;;;12.90;99.90;;;;;;5094685;28;20452;-68
2022/10/12 08:57:17;;;;;;;10.03;4.27;;;13.00;99.90;;;;;;5094122;28;20479;-68
2022/10/12 08:59:44;;;;;;;7.40;4.13;;;13.10;99.90;;;;;;5093931;28;20643;-68
2022/10/12 09:02:34;;;;;;;8.57;4.13;;;13.10;99.90;;;;;;5094053;28;20500;-67
2022/10/12 09:05:07;;;;;;;9.23;4.37;;;13.10;99.90;;;;;;5094104;28;20528;-68
2022/10/12 09:07:37;;;;;;;10.83;4.10;;;13.20;99.90;;;;;;5094185;28;20438;-69
2022/10/12 09:10:21;;;;;;;10.20;3.30;;;13.30;99.90;;;;;;5094426;28;20444;-68
2022/10/12 09:13:00;;;;;;;8.83;3.80;;;13.40;99.90;;;;;;5094737;28;20445;-68
2022/10/12 09:15:31;;;;;;;12.90;3.20;;;13.50;99.90;;;;;;5094676;28;20463;-68
2022/10/12 09:18:01;;;;;;;7.00;3.23;;;13.50;99.90;;;;;;5094089;28;20468;-68
2022/10/12 09:20:31;;;;;;;8.37;2.57;;;13.50;99.90;;;;;;5094212;28;20948;-67
2022/10/12 09:23:03;;;;;;;10.80;3.20;;;13.60;99.90;;;;;;5093978;28;20708;-67
2022/10/12 09:25:30;;;;;;;10.50;4.07;;;13.70;99.90;;;;;;5093760;28;20491;-68
2022/10/12 09:28:11;;;;;;;7.20;3.80;;;13.70;99.90;;;;;;5093756;28;20457;-68
2022/10/12 09:30:43;;;;;;;5.87;2.50;;;13.70;99.90;;;;;;5094106;28;20438;-68
2022/10/12 09:33:19;;;;;;;7.00;2.77;;;13.80;99.90;;;;;;5094570;28;20505;-68
2022/10/12 09:35:46;;;;;;;6.30;2.57;;;13.80;99.90;;;;;;5094506;28;20735;-68
2022/10/12 09:38:14;;;;;;;13.37;6.80;;;13.80;99.90;;;;;;5094233;28;20510;-68
2022/10/12 09:40:43;;;;;;;8.00;3.63;;;13.90;99.90;;;;;;5094166;28;20497;-68
2022/10/12 09:43:10;;;;;;;7.90;4.13;;;14.00;99.90;;;;;;5094155;28;20453;-69
2022/10/12 09:45:38;;;;;;;8.60;3.00;;;14.10;99.90;;;;;;5094276;28;20454;-68
2022/10/12 09:48:15;;;;;;;10.97;3.63;;;14.10;99.90;;;;;;5094095;28;20463;-69
2022/10/12 09:50:46;;;;;;;11.17;4.10;;;14.10;99.90;;;;;;5093708;28;20437;-68
2022/10/12 09:53:22;;;;;;;13.70;3.50;;;14.20;99.90;;;;;;5093653;28;20477;-68
2022/10/12 09:55:55;;;;;;;7.77;3.10;;;14.30;99.90;;;;;;5097273;28;20448;-68
2022/10/12 09:58:24;;;;;;;7.73;3.17;;;14.40;99.90;;;;;;5097345;28;20447;-68
2022/10/12 10:01:27;;;;;;;5.77;2.63;;;14.50;99.90;;;;;;5097120;28;20481;-68
2022/10/12 10:04:15;;;;;;;10.27;3.13;;;14.60;99.90;;;;;;5097226;28;20441;-68
2022/10/12 10:06:44;;;;;;;8.83;2.63;;;14.70;99.90;;;;;;5097392;28;20513;-68
2022/10/12 10:09:31;;;;;;;9.17;3.43;;;14.80;99.90;;;;;;5097060;28;20457;-68
2022/10/12 10:12:11;;;;;;;6.37;4.00;;;14.90;99.90;;;;;;5097056;28;20781;-68
2022/10/12 10:14:38;;;;;;;7.00;3.20;;;15.00;99.90;;;;;;5097102;28;20442;-68
2022/10/12 10:17:04;;;;;;;8.23;2.70;;;15.10;99.90;;;;;;5097050;28;20463;-69
2022/10/12 10:19:33;;;;;;;13.27;3.77;;;15.10;99.90;;;;;;5096432;28;20803;-68
2022/10/12 10:22:05;;;;;;;7.30;3.33;;;15.10;99.90;;;;;;5097044;28;20485;-68
2022/10/12 10:24:33;;;;;;;12.63;3.00;;;15.20;99.90;;;;;;5096910;28;20477;-68
2022/10/12 10:27:02;;;;;;;4.40;2.43;;;15.20;99.90;;;;;;5096715;28;20457;-68
2022/10/12 10:29:39;;;;;;;7.00;2.80;;;15.30;99.90;;;;;;5096656;28;20464;-68
2022/10/12 10:32:25;;;;;;;8.47;2.77;;;15.40;99.90;;;;;;5096637;28;20448;-68
2022/10/12 10:35:05;;;;;;;10.80;2.70;;;15.40;99.90;;;;;;5096725;28;20544;-68
2022/10/12 10:37:32;;;;;;;7.10;2.70;;;15.50;99.90;;;;;;5096893;28;20438;-68
2022/10/12 10:40:00;;;;;;;10.00;3.10;;;15.50;99.90;;;;;;5096371;28;20507;-68
2022/10/12 10:42:30;;;;;;;10.60;4.50;;;15.60;99.90;;;;;;5096579;28;20463;-67
2022/10/12 10:45:00;;;;;;;7.57;2.80;;;15.60;99.90;;;;;;5097228;28;20477;-68
2022/10/12 10:47:28;;;;;;;6.70;2.50;;;15.80;99.90;;;;;;5096501;28;20492;-67
2022/10/12 10:49:58;;;;;;;9.83;2.87;;;15.90;99.90;;;;;;5096404;28;20464;-68
2022/10/12 10:52:29;;;;;;;7.60;2.47;;;15.90;99.90;;;;;;5096044;28;20457;-68
2022/10/12 10:55:19;;;;;;;6.37;2.53;;;16.10;99.90;;;;;;5096338;28;20441;-68
2022/10/12 10:57:56;;;;;;;8.80;2.40;;;16.20;99.90;;;;;;5095822;28;20453;-68
2022/10/12 11:00:23;;;;;;;7.87;2.20;;;16.20;99.90;;;;;;5095552;28;20465;-68
2022/10/12 11:02:53;;;;;;;8.73;2.53;;;16.30;99.90;;;;;;5095971;28;20457;-68
2022/10/12 11:05:25;;;;;;;6.83;2.47;;;16.30;99.90;;;;;;5096282;28;20491;-69
2022/10/12 11:07:55;;;;;;;8.23;2.60;;;16.20;99.90;;;;;;5095835;28;20441;-69
2022/10/12 11:10:28;;;;;;;4.40;1.70;;;16.30;99.90;;;;;;5096135;28;20460;-69
2022/10/12 11:13:00;;;;;;;8.40;2.53;;;16.40;99.90;;;;;;5095749;28;20433;-69
2022/10/12 11:15:34;;;;;;;6.90;2.07;;;16.50;99.90;;;;;;5095536;28;20442;-69
2022/10/12 11:18:11;;;;;;;5.57;2.37;;;16.70;99.90;;;;;;5095891;28;20442;-69
2022/10/12 11:20:45;;;;;;;5.70;2.17;;;16.70;99.90;;;;;;5095528;28;20473;-69
2022/10/12 11:23:22;;;;;;;9.83;2.77;;;16.70;99.90;;;;;;5095347;28;20433;-68
2022/10/12 11:26:01;;;;;;;9.30;2.67;;;16.70;99.90;;;;;;5095486;28;20446;-69
2022/10/12 11:28:31;;;;;;;7.57;2.63;;;16.90;99.90;;;;;;5095631;28;20528;-69
2022/10/12 11:30:58;;;;;;;5.20;2.00;;;16.90;99.90;;;;;;5095083;28;20449;-68
2022/10/12 11:33:28;;;;;;;5.00;1.93;;;16.90;99.90;;;;;;5096003;28;20836;-68
2022/10/12 11:35:56;;;;;;;3.13;2.20;;;16.80;99.90;;;;;;5095185;28;20453;-68
2022/10/12 11:38:30;;;;;;;10.47;7.57;;;16.90;99.90;;;;;;5095788;28;20549;-68
2022/10/12 11:41:03;;;;;;;7.00;2.47;;;16.90;99.90;;;;;;5095574;28;20790;-68
2022/10/12 11:43:35;;;;;;;6.80;2.13;;;17.10;99.90;;;;;;5095402;28;20456;-67
2022/10/12 11:46:07;;;;;;;5.57;1.93;;;17.40;99.90;;;;;;5095110;28;20452;-69
2022/10/12 11:48:41;;;;;;;5.40;2.73;;;17.80;99.90;;;;;;5095087;28;20525;-68
2022/10/12 11:51:08;;;;;;;7.00;4.67;;;18.20;99.90;;;;;;5094839;28;20433;-68
2022/10/12 11:53:46;;;;;;;5.23;2.00;;;19.00;99.90;;;;;;5094870;28;20557;-68
2022/10/12 11:56:19;;;;;;;8.27;3.17;;;19.80;99.90;;;;;;5094832;28;20448;-68
2022/10/12 11:58:48;;;;;;;6.57;1.97;;;20.80;99.90;;;;;;5094354;28;20444;-68
2022/10/12 12:01:51;;;;;;;4.33;1.93;;;21.30;99.90;;;;;;5094447;28;20481;-68
2022/10/12 12:04:24;;;;;;;7.13;2.43;;;21.80;99.50;;;;;;5074023;28;20453;-68
2022/10/12 12:06:54;;;;;;;4.87;1.77;;;21.70;96.20;;;;;;5094655;28;20777;-68
2022/10/12 12:09:35;;;;;;;8.17;3.70;;;21.40;95.20;;;;;;5095583;28;20733;-68
2022/10/12 12:12:17;;;;;;;7.40;2.23;;;21.20;93.80;;;;;;5094561;28;20549;-68
2022/10/12 12:15:20;;;;;;;8.80;3.87;;;21.00;93.40;;;;;;5095044;28;20826;-67
2022/10/12 12:18:10;;;;;;;8.40;4.77;;;21.80;92.00;;;;;;5094278;28;20437;-67
2022/10/12 12:21:00;;;;;;;3.63;1.50;;;23.20;88.60;;;;;;5094886;28;20532;-68
2022/10/12 12:23:37;;;;;;;5.13;1.80;;;24.50;75.50;;;;;;5094532;28;20454;-68
2022/10/12 12:26:14;;;;;;;5.70;2.20;;;25.00;69.00;;;;;;5094457;28;20539;-67
2022/10/12 12:28:43;;;;;;;4.40;1.57;;;25.80;65.20;;;;;;5093791;28;20453;-68
2022/10/12 12:31:14;;;;;;;5.23;1.60;;;26.40;59.80;;;;;;5094320;28;20536;-68
2022/10/12 12:33:44;;;;;;;3.17;1.57;;;26.60;56.50;;;;;;5096415;28;20545;-69
2022/10/12 12:36:14;;;;;;;8.17;1.73;;;26.60;55.40;;;;;;5096960;28;20441;-69
2022/10/12 12:38:48;;;;;;;4.07;1.60;;;26.80;54.70;;;;;;5096696;28;20514;-69
2022/10/12 12:41:18;;;;;;;3.73;1.43;;;27.00;50.80;;;;;;5097704;28;20556;-69
2022/10/12 12:44:04;;;;;;;5.20;1.83;;;26.60;49.40;;;;;;5099596;28;20545;-69
2022/10/12 12:47:08;;;;;;;4.93;1.80;;;25.60;49.90;;;;;;5100322;28;20445;-69
2022/10/12 12:49:46;;;;;;;4.00;1.77;;;25.20;51.40;;;;;;5101476;28;20433;-69
2022/10/12 12:52:26;;;;;;;5.27;1.70;;;25.30;51.10;;;;;;5099576;28;20441;-69
2022/10/12 12:55:20;;;;;;;4.97;1.63;;;25.80;50.20;;;;;;5100436;28;20674;-69
2022/10/12 12:58:04;;;;;;;8.00;1.70;;;26.00;49.40;;;;;;5091051;28;20484;-69
2022/10/12 13:00:37;;;;;;;4.40;1.47;;;25.90;47.70;;;;;;5101440;28;20514;-70